Terminal Aerodrome Forecast
Issued by NWS Green Bay, WI

Home | Current Version | Previous Version | Graphics & Text | Print | Product List | Glossary On
Versions: 1 2 3 4 5 6 7 8 9 10 11 12 13 14 15 16 17 18 19 20 21 22 23 24 25 26 27 28 29 30 31 32 33 34 35 36 37 38 39 40 41 42 43 44 45 46 47 48
000
FTUS43 KGRB 200500
TAFGRB
TAF
KGRB 200520Z 2006/2106 21009G15KT P6SM SCT035 BKN070 WS012/24040KT
      TEMPO 2008/2012 4SM SHRA SCT020 OVC035
     FM201200 23008G15KT P6SM BKN015 BKN080
      TEMPO 2012/2015 4SM BR OVC010
     FM201600 24010G17KT P6SM SCT015 BKN100 PROB30 2017/2019 4SM
      TSRA BKN020CB
     FM201900 27010G17KT P6SM SCT030 SCT100
     FM210000 25006KT P6SM SCT040 BKN070
      TEMPO 2104/2106 5SM -SHRA BR OVC035=

USA.gov is the U.S. government's official web portal to all federal, state and local government web resources and services.